sensor_id;sensor_type;location;lat;lon;timestamp;temperature;humidity
27314;DHT22;14800;48.174;9.798;2022-11-18T00:02:10;10.90;86.60
27314;DHT22;14800;48.174;9.798;2022-11-18T00:04:36;10.90;86.60
27314;DHT22;14800;48.174;9.798;2022-11-18T00:07:01;10.90;86.40
27314;DHT22;14800;48.174;9.798;2022-11-18T00:09:27;10.90;86.40
27314;DHT22;14800;48.174;9.798;2022-11-18T00:11:52;10.90;86.30
27314;DHT22;14800;48.174;9.798;2022-11-18T00:14:37;11.00;86.40
27314;DHT22;14800;48.174;9.798;2022-11-18T00:17:05;10.90;86.20
27314;DHT22;14800;48.174;9.798;2022-11-18T00:19:39;10.90;86.20
27314;DHT22;14800;48.174;9.798;2022-11-18T00:22:07;10.90;86.40
27314;DHT22;14800;48.174;9.798;2022-11-18T00:24:33;10.90;86.10
27314;DHT22;14800;48.174;9.798;2022-11-18T00:26:59;10.90;86.10
27314;DHT22;14800;48.174;9.798;2022-11-18T00:29:25;10.90;86.20
27314;DHT22;14800;48.174;9.798;2022-11-18T00:31:55;10.90;86.30
27314;DHT22;14800;48.174;9.798;2022-11-18T00:34:21;10.80;86.30
27314;DHT22;14800;48.174;9.798;2022-11-18T00:36:47;10.80;86.50
27314;DHT22;14800;48.174;9.798;2022-11-18T00:39:15;10.80;86.60
27314;DHT22;14800;48.174;9.798;2022-11-18T00:41:41;10.80;87.30
27314;DHT22;14800;48.174;9.798;2022-11-18T00:44:25;10.80;86.70
27314;DHT22;14800;48.174;9.798;2022-11-18T00:46:51;10.70;86.80
27314;DHT22;14800;48.174;9.798;2022-11-18T00:49:17;10.70;86.80
27314;DHT22;14800;48.174;9.798;2022-11-18T00:51:42;10.70;86.90
27314;DHT22;14800;48.174;9.798;2022-11-18T00:54:08;10.70;87.10
27314;DHT22;14800;48.174;9.798;2022-11-18T00:56:33;10.70;87.10
27314;DHT22;14800;48.174;9.798;2022-11-18T00:58:59;10.70;87.20
27314;DHT22;14800;48.174;9.798;2022-11-18T01:01:25;10.70;87.30
27314;DHT22;14800;48.174;9.798;2022-11-18T01:03:51;10.70;87.40
27314;DHT22;14800;48.174;9.798;2022-11-18T01:06:16;10.70;87.40
27314;DHT22;14800;48.174;9.798;2022-11-18T01:08:42;10.70;87.40
27314;DHT22;14800;48.174;9.798;2022-11-18T01:11:07;10.70;87.40
27314;DHT22;14800;48.174;9.798;2022-11-18T01:13:52;10.70;87.40
27314;DHT22;14800;48.174;9.798;2022-11-18T01:16:19;10.70;87.40
27314;DHT22;14800;48.174;9.798;2022-11-18T01:18:45;10.70;87.50
27314;DHT22;14800;48.174;9.798;2022-11-18T01:21:11;10.70;87.50
27314;DHT22;14800;48.174;9.798;2022-11-18T01:23:36;10.70;87.50
27314;DHT22;14800;48.174;9.798;2022-11-18T01:26:04;10.70;87.40
27314;DHT22;14800;48.174;9.798;2022-11-18T01:28:30;10.70;87.40
27314;DHT22;14800;48.174;9.798;2022-11-18T01:31:24;10.70;87.30
27314;DHT22;14800;48.174;9.798;2022-11-18T01:33:48;10.70;87.50
27314;DHT22;14800;48.174;9.798;2022-11-18T01:36:19;10.70;87.30
27314;DHT22;14800;48.174;9.798;2022-11-18T01:38:45;10.70;87.60
27314;DHT22;14800;48.174;9.798;2022-11-18T01:41:11;10.60;87.60
27314;DHT22;14800;48.174;9.798;2022-11-18T01:46:22;10.60;88.30
27314;DHT22;14800;48.174;9.798;2022-11-18T01:48:53;10.60;87.80
27314;DHT22;14800;48.174;9.798;2022-11-18T01:51:24;10.50;88.00
27314;DHT22;14800;48.174;9.798;2022-11-18T01:53:55;10.50;88.10
27314;DHT22;14800;48.174;9.798;2022-11-18T01:56:30;10.50;88.10
27314;DHT22;14800;48.174;9.798;2022-11-18T01:59:00;10.50;88.30
27314;DHT22;14800;48.174;9.798;2022-11-18T02:01:27;10.60;88.40
27314;DHT22;14800;48.174;9.798;2022-11-18T02:03:53;10.50;88.30
27314;DHT22;14800;48.174;9.798;2022-11-18T02:06:19;10.50;88.30
27314;DHT22;14800;48.174;9.798;2022-11-18T02:08:45;10.40;88.30
27314;DHT22;14800;48.174;9.798;2022-11-18T02:11:13;10.40;88.40
27314;DHT22;14800;48.174;9.798;2022-11-18T02:13:59;10.40;88.30
27314;DHT22;14800;48.174;9.798;2022-11-18T02:31:06;10.40;88.90
27314;DHT22;14800;48.174;9.798;2022-11-18T02:33:52;10.40;88.90
27314;DHT22;14800;48.174;9.798;2022-11-18T02:36:24;10.30;89.00
27314;DHT22;14800;48.174;9.798;2022-11-18T02:38:54;10.30;88.70
27314;DHT22;14800;48.174;9.798;2022-11-18T02:41:27;10.30;88.80
27314;DHT22;14800;48.174;9.798;2022-11-18T02:44:03;10.30;89.00
27314;DHT22;14800;48.174;9.798;2022-11-18T02:46:32;10.30;88.80
27314;DHT22;14800;48.174;9.798;2022-11-18T02:49:01;10.30;89.00
27314;DHT22;14800;48.174;9.798;2022-11-18T02:51:29;10.30;88.80
27314;DHT22;14800;48.174;9.798;2022-11-18T02:53:59;10.30;89.00
27314;DHT22;14800;48.174;9.798;2022-11-18T02:56:28;10.30;89.10
27314;DHT22;14800;48.174;9.798;2022-11-18T02:58:54;10.30;89.00
27314;DHT22;14800;48.174;9.798;2022-11-18T03:01:23;10.30;89.10
27314;DHT22;14800;48.174;9.798;2022-11-18T03:03:49;10.20;89.20
27314;DHT22;14800;48.174;9.798;2022-11-18T03:11:22;10.30;89.40
27314;DHT22;14800;48.174;9.798;2022-11-18T03:17:22;10.30;89.80
27314;DHT22;14800;48.174;9.798;2022-11-18T03:22:10;10.30;89.50
27314;DHT22;14800;48.174;9.798;2022-11-18T03:24:43;10.30;89.70
27314;DHT22;14800;48.174;9.798;2022-11-18T03:27:25;10.30;89.70
27314;DHT22;14800;48.174;9.798;2022-11-18T03:30:01;10.30;89.90
27314;DHT22;14800;48.174;9.798;2022-11-18T03:32:30;10.30;89.50
27314;DHT22;14800;48.174;9.798;2022-11-18T03:35:13;10.40;89.50
27314;DHT22;14800;48.174;9.798;2022-11-18T03:37:40;10.40;89.80
27314;DHT22;14800;48.174;9.798;2022-11-18T03:40:21;10.40;89.50
27314;DHT22;14800;48.174;9.798;2022-11-18T03:42:51;10.40;89.60
27314;DHT22;14800;48.174;9.798;2022-11-18T03:48:15;10.40;89.30
27314;DHT22;14800;48.174;9.798;2022-11-18T03:50:53;10.40;89.20
27314;DHT22;14800;48.174;9.798;2022-11-18T03:53:20;10.40;89.00
27314;DHT22;14800;48.174;9.798;2022-11-18T03:55:49;10.40;88.90
27314;DHT22;14800;48.174;9.798;2022-11-18T03:58:29;10.40;89.00
27314;DHT22;14800;48.174;9.798;2022-11-18T04:01:08;10.50;89.00
27314;DHT22;14800;48.174;9.798;2022-11-18T04:03:35;10.50;89.00
27314;DHT22;14800;48.174;9.798;2022-11-18T04:06:40;10.50;88.90
27314;DHT22;14800;48.174;9.798;2022-11-18T04:09:20;10.50;89.00
27314;DHT22;14800;48.174;9.798;2022-11-18T04:11:52;10.50;89.00
27314;DHT22;14800;48.174;9.798;2022-11-18T04:14:34;10.50;88.80
27314;DHT22;14800;48.174;9.798;2022-11-18T04:17:08;10.50;89.00
27314;DHT22;14800;48.174;9.798;2022-11-18T04:19:34;10.50;89.00
27314;DHT22;14800;48.174;9.798;2022-11-18T04:22:00;10.50;88.40
27314;DHT22;14800;48.174;9.798;2022-11-18T04:24:25;10.40;87.80
27314;DHT22;14800;48.174;9.798;2022-11-18T04:26:51;10.40;87.60
27314;DHT22;14800;48.174;9.798;2022-11-18T04:29:16;10.30;87.60
27314;DHT22;14800;48.174;9.798;2022-11-18T04:31:42;10.20;87.60
27314;DHT22;14800;48.174;9.798;2022-11-18T04:34:08;10.20;87.90
27314;DHT22;14800;48.174;9.798;2022-11-18T04:36:33;10.20;88.10
27314;DHT22;14800;48.174;9.798;2022-11-18T04:38:59;10.20;88.30
27314;DHT22;14800;48.174;9.798;2022-11-18T04:41:24;10.10;88.50
27314;DHT22;14800;48.174;9.798;2022-11-18T04:44:10;10.10;88.70
27314;DHT22;14800;48.174;9.798;2022-11-18T04:46:42;10.00;88.60
27314;DHT22;14800;48.174;9.798;2022-11-18T04:49:09;10.00;88.80
27314;DHT22;14800;48.174;9.798;2022-11-18T04:51:35;10.00;88.90
27314;DHT22;14800;48.174;9.798;2022-11-18T04:54:02;10.00;89.00
27314;DHT22;14800;48.174;9.798;2022-11-18T04:56:27;10.00;89.00
27314;DHT22;14800;48.174;9.798;2022-11-18T04:58:53;10.00;89.00
27314;DHT22;14800;48.174;9.798;2022-11-18T05:01:19;10.00;89.10
27314;DHT22;14800;48.174;9.798;2022-11-18T05:03:44;9.90;88.90
27314;DHT22;14800;48.174;9.798;2022-11-18T05:06:10;10.00;89.00
27314;DHT22;14800;48.174;9.798;2022-11-18T05:08:35;9.90;89.70
27314;DHT22;14800;48.174;9.798;2022-11-18T05:11:05;9.90;88.90
27314;DHT22;14800;48.174;9.798;2022-11-18T05:13:50;9.90;88.90
27314;DHT22;14800;48.174;9.798;2022-11-18T05:16:16;9.90;88.80
27314;DHT22;14800;48.174;9.798;2022-11-18T05:18:42;9.90;88.80
27314;DHT22;14800;48.174;9.798;2022-11-18T05:21:07;9.90;88.80
27314;DHT22;14800;48.174;9.798;2022-11-18T05:23:33;9.90;88.80
27314;DHT22;14800;48.174;9.798;2022-11-18T05:26:06;10.00;88.70
27314;DHT22;14800;48.174;9.798;2022-11-18T05:28:32;10.00;88.60
27314;DHT22;14800;48.174;9.798;2022-11-18T05:30:58;10.00;88.50
27314;DHT22;14800;48.174;9.798;2022-11-18T05:33:23;10.00;88.50
27314;DHT22;14800;48.174;9.798;2022-11-18T05:35:49;10.00;88.40
27314;DHT22;14800;48.174;9.798;2022-11-18T05:38:15;10.00;88.30
27314;DHT22;14800;48.174;9.798;2022-11-18T05:40:43;10.00;88.30
27314;DHT22;14800;48.174;9.798;2022-11-18T05:43:09;10.00;88.30
27314;DHT22;14800;48.174;9.798;2022-11-18T05:45:35;10.00;88.20
27314;DHT22;14800;48.174;9.798;2022-11-18T05:48:01;10.00;88.20
27314;DHT22;14800;48.174;9.798;2022-11-18T05:50:29;9.90;88.20
27314;DHT22;14800;48.174;9.798;2022-11-18T05:52:54;10.00;88.40
27314;DHT22;14800;48.174;9.798;2022-11-18T05:55:23;9.90;88.50
27314;DHT22;14800;48.174;9.798;2022-11-18T05:57:50;9.90;88.60
27314;DHT22;14800;48.174;9.798;2022-11-18T06:00:16;9.90;88.60
27314;DHT22;14800;48.174;9.798;2022-11-18T06:02:44;10.00;88.60
27314;DHT22;14800;48.174;9.798;2022-11-18T06:05:11;9.90;88.60
27314;DHT22;14800;48.174;9.798;2022-11-18T06:07:40;9.90;88.80
27314;DHT22;14800;48.174;9.798;2022-11-18T06:10:09;9.90;89.10
27314;DHT22;14800;48.174;9.798;2022-11-18T06:12:38;9.90;89.20
27314;DHT22;14800;48.174;9.798;2022-11-18T06:15:19;9.90;89.30
27314;DHT22;14800;48.174;9.798;2022-11-18T06:18:15;9.90;89.50
27314;DHT22;14800;48.174;9.798;2022-11-18T06:20:43;9.90;89.90
27314;DHT22;14800;48.174;9.798;2022-11-18T06:23:09;9.90;89.50
27314;DHT22;14800;48.174;9.798;2022-11-18T06:25:39;10.00;89.60
27314;DHT22;14800;48.174;9.798;2022-11-18T06:28:05;10.00;89.70
27314;DHT22;14800;48.174;9.798;2022-11-18T06:30:31;10.00;89.60
27314;DHT22;14800;48.174;9.798;2022-11-18T06:32:57;10.00;89.60
27314;DHT22;14800;48.174;9.798;2022-11-18T06:35:22;10.10;89.60
27314;DHT22;14800;48.174;9.798;2022-11-18T06:37:48;10.10;89.50
27314;DHT22;14800;48.174;9.798;2022-11-18T06:40:14;10.10;89.40
27314;DHT22;14800;48.174;9.798;2022-11-18T06:42:39;10.10;89.20
27314;DHT22;14800;48.174;9.798;2022-11-18T06:45:23;10.20;89.20
27314;DHT22;14800;48.174;9.798;2022-11-18T06:47:49;10.20;89.10
27314;DHT22;14800;48.174;9.798;2022-11-18T06:50:15;10.20;89.00
27314;DHT22;14800;48.174;9.798;2022-11-18T06:52:40;10.20;88.80
27314;DHT22;14800;48.174;9.798;2022-11-18T06:55:06;10.30;88.60
27314;DHT22;14800;48.174;9.798;2022-11-18T06:57:33;10.30;88.50
27314;DHT22;14800;48.174;9.798;2022-11-18T06:59:59;10.30;89.20
27314;DHT22;14800;48.174;9.798;2022-11-18T07:02:25;10.30;88.30
27314;DHT22;14800;48.174;9.798;2022-11-18T07:04:50;10.30;88.40
27314;DHT22;14800;48.174;9.798;2022-11-18T07:07:16;10.30;89.30
27314;DHT22;14800;48.174;9.798;2022-11-18T07:09:41;10.30;88.40
27314;DHT22;14800;48.174;9.798;2022-11-18T07:12:07;10.30;88.50
27314;DHT22;14800;48.174;9.798;2022-11-18T07:14:32;10.30;88.50
27314;DHT22;14800;48.174;9.798;2022-11-18T07:16:58;10.30;88.60
27314;DHT22;14800;48.174;9.798;2022-11-18T07:19:23;10.30;88.60
27314;DHT22;14800;48.174;9.798;2022-11-18T07:21:49;10.30;88.60
27314;DHT22;14800;48.174;9.798;2022-11-18T07:24:15;10.30;88.60
27314;DHT22;14800;48.174;9.798;2022-11-18T07:26:41;10.30;88.60
27314;DHT22;14800;48.174;9.798;2022-11-18T07:29:07;10.30;88.60
27314;DHT22;14800;48.174;9.798;2022-11-18T07:31:34;10.30;88.60
27314;DHT22;14800;48.174;9.798;2022-11-18T07:34:02;10.30;88.80
27314;DHT22;14800;48.174;9.798;2022-11-18T07:36:28;10.30;88.80
27314;DHT22;14800;48.174;9.798;2022-11-18T07:38:54;10.30;88.80
27314;DHT22;14800;48.174;9.798;2022-11-18T07:41:22;10.10;88.80
27314;DHT22;14800;48.174;9.798;2022-11-18T07:43:49;10.30;88.80
27314;DHT22;14800;48.174;9.798;2022-11-18T07:48:44;10.30;88.60
27314;DHT22;14800;48.174;9.798;2022-11-18T07:51:11;10.30;88.60
27314;DHT22;14800;48.174;9.798;2022-11-18T07:53:37;10.30;88.60
27314;DHT22;14800;48.174;9.798;2022-11-18T07:56:03;10.30;88.60
27314;DHT22;14800;48.174;9.798;2022-11-18T07:58:29;10.30;88.70
27314;DHT22;14800;48.174;9.798;2022-11-18T08:00:55;10.30;88.60
27314;DHT22;14800;48.174;9.798;2022-11-18T08:03:27;10.30;88.60
27314;DHT22;14800;48.174;9.798;2022-11-18T08:06:02;10.30;88.50
27314;DHT22;14800;48.174;9.798;2022-11-18T08:08:28;10.30;88.40
27314;DHT22;14800;48.174;9.798;2022-11-18T08:10:55;10.30;88.40
27314;DHT22;14800;48.174;9.798;2022-11-18T08:13:22;10.30;88.30
27314;DHT22;14800;48.174;9.798;2022-11-18T08:15:47;10.30;88.30
27314;DHT22;14800;48.174;9.798;2022-11-18T08:18:13;10.30;88.40
27314;DHT22;14800;48.174;9.798;2022-11-18T08:20:38;10.30;88.30
27314;DHT22;14800;48.174;9.798;2022-11-18T08:23:04;10.30;88.30
27314;DHT22;14800;48.174;9.798;2022-11-18T08:25:30;10.30;88.10
27314;DHT22;14800;48.174;9.798;2022-11-18T08:27:55;10.30;88.10
27314;DHT22;14800;48.174;9.798;2022-11-18T08:30:21;10.30;88.10
27314;DHT22;14800;48.174;9.798;2022-11-18T08:32:46;10.30;88.10
27314;DHT22;14800;48.174;9.798;2022-11-18T08:35:12;10.30;88.80
27314;DHT22;14800;48.174;9.798;2022-11-18T08:37:38;10.30;88.00
27314;DHT22;14800;48.174;9.798;2022-11-18T08:40:04;10.30;88.00
27314;DHT22;14800;48.174;9.798;2022-11-18T08:42:29;10.30;88.00
27314;DHT22;14800;48.174;9.798;2022-11-18T08:44:55;10.30;88.00
27314;DHT22;14800;48.174;9.798;2022-11-18T08:47:21;10.30;87.90
27314;DHT22;14800;48.174;9.798;2022-11-18T08:49:46;10.30;87.60
27314;DHT22;14800;48.174;9.798;2022-11-18T08:52:12;10.40;87.70
27314;DHT22;14800;48.174;9.798;2022-11-18T08:54:37;10.30;87.60
27314;DHT22;14800;48.174;9.798;2022-11-18T08:57:03;10.30;87.30
27314;DHT22;14800;48.174;9.798;2022-11-18T08:59:29;10.30;87.40
27314;DHT22;14800;48.174;9.798;2022-11-18T09:01:54;10.30;87.40
27314;DHT22;14800;48.174;9.798;2022-11-18T09:04:20;10.30;87.30
27314;DHT22;14800;48.174;9.798;2022-11-18T09:06:45;10.30;87.30
27314;DHT22;14800;48.174;9.798;2022-11-18T09:09:11;10.30;87.40
27314;DHT22;14800;48.174;9.798;2022-11-18T09:11:37;10.30;87.20
27314;DHT22;14800;48.174;9.798;2022-11-18T09:14:03;10.30;87.10
27314;DHT22;14800;48.174;9.798;2022-11-18T09:16:31;10.30;87.30
27314;DHT22;14800;48.174;9.798;2022-11-18T09:18:57;10.30;87.30
27314;DHT22;14800;48.174;9.798;2022-11-18T09:21:23;10.30;87.30
27314;DHT22;14800;48.174;9.798;2022-11-18T09:23:49;10.40;87.60
27314;DHT22;14800;48.174;9.798;2022-11-18T09:26:16;10.40;87.80
27314;DHT22;14800;48.174;9.798;2022-11-18T09:28:43;10.40;88.00
27314;DHT22;14800;48.174;9.798;2022-11-18T09:31:15;10.50;88.30
27314;DHT22;14800;48.174;9.798;2022-11-18T09:33:41;10.50;88.10
27314;DHT22;14800;48.174;9.798;2022-11-18T09:36:14;10.60;88.00
27314;DHT22;14800;48.174;9.798;2022-11-18T09:38:40;10.60;87.80
27314;DHT22;14800;48.174;9.798;2022-11-18T09:46:25;10.70;87.20
27314;DHT22;14800;48.174;9.798;2022-11-18T09:48:57;10.80;86.90
27314;DHT22;14800;48.174;9.798;2022-11-18T09:51:45;10.90;86.80
27314;DHT22;14800;48.174;9.798;2022-11-18T09:54:23;10.80;86.80
27314;DHT22;14800;48.174;9.798;2022-11-18T09:56:51;10.90;86.40
27314;DHT22;14800;48.174;9.798;2022-11-18T09:59:20;10.90;86.50
27314;DHT22;14800;48.174;9.798;2022-11-18T10:01:47;10.90;86.20
27314;DHT22;14800;48.174;9.798;2022-11-18T10:04:16;10.90;86.10
27314;DHT22;14800;48.174;9.798;2022-11-18T10:06:42;10.90;86.30
27314;DHT22;14800;48.174;9.798;2022-11-18T10:12:31;10.90;85.70
27314;DHT22;14800;48.174;9.798;2022-11-18T10:15:18;10.90;85.30
27314;DHT22;14800;48.174;9.798;2022-11-18T10:22:59;10.90;85.50
27314;DHT22;14800;48.174;9.798;2022-11-18T10:25:27;10.90;85.20
27314;DHT22;14800;48.174;9.798;2022-11-18T10:27:54;10.90;85.20
27314;DHT22;14800;48.174;9.798;2022-11-18T10:30:23;10.90;85.20
27314;DHT22;14800;48.174;9.798;2022-11-18T10:32:59;10.90;85.50
27314;DHT22;14800;48.174;9.798;2022-11-18T10:35:31;10.90;86.30
27314;DHT22;14800;48.174;9.798;2022-11-18T10:38:15;10.90;85.70
27314;DHT22;14800;48.174;9.798;2022-11-18T10:40:56;10.90;85.50
27314;DHT22;14800;48.174;9.798;2022-11-18T10:43:54;11.00;85.80
27314;DHT22;14800;48.174;9.798;2022-11-18T10:49:15;11.00;85.60
27314;DHT22;14800;48.174;9.798;2022-11-18T10:51:42;11.00;86.50
27314;DHT22;14800;48.174;9.798;2022-11-18T10:54:21;11.00;85.70
27314;DHT22;14800;48.174;9.798;2022-11-18T10:57:35;11.10;85.70
27314;DHT22;14800;48.174;9.798;2022-11-18T10:59:41;11.10;85.90
27314;DHT22;14800;48.174;9.798;2022-11-18T11:04:47;11.10;86.00
27314;DHT22;14800;48.174;9.798;2022-11-18T11:07:34;11.10;86.20
27314;DHT22;14800;48.174;9.798;2022-11-18T11:12:41;11.10;86.20
27314;DHT22;14800;48.174;9.798;2022-11-18T11:15:34;11.20;86.20
27314;DHT22;14800;48.174;9.798;2022-11-18T11:18:03;11.20;86.20
27314;DHT22;14800;48.174;9.798;2022-11-18T11:20:51;11.20;87.10
27314;DHT22;14800;48.174;9.798;2022-11-18T11:23:17;11.30;86.30
27314;DHT22;14800;48.174;9.798;2022-11-18T11:26:04;11.30;85.70
27314;DHT22;14800;48.174;9.798;2022-11-18T11:28:50;11.30;84.80
27314;DHT22;14800;48.174;9.798;2022-11-18T11:32:03;11.40;85.00
27314;DHT22;14800;48.174;9.798;2022-11-18T11:39:45;11.40;84.70
27314;DHT22;14800;48.174;9.798;2022-11-18T11:42:59;11.40;84.30
27314;DHT22;14800;48.174;9.798;2022-11-18T11:48:23;11.40;84.40
27314;DHT22;14800;48.174;9.798;2022-11-18T11:50:59;11.50;84.50
27314;DHT22;14800;48.174;9.798;2022-11-18T11:56:34;11.50;84.30
27314;DHT22;14800;48.174;9.798;2022-11-18T12:02:25;11.60;83.80
27314;DHT22;14800;48.174;9.798;2022-11-18T12:05:23;11.70;83.60
27314;DHT22;14800;48.174;9.798;2022-11-18T12:10:25;11.80;83.20
27314;DHT22;14800;48.174;9.798;2022-11-18T12:16:09;11.90;81.40
27314;DHT22;14800;48.174;9.798;2022-11-18T12:40:41;12.20;78.10
27314;DHT22;14800;48.174;9.798;2022-11-18T12:51:56;12.40;72.70
27314;DHT22;14800;48.174;9.798;2022-11-18T12:57:49;12.40;73.10
27314;DHT22;14800;48.174;9.798;2022-11-18T12:59:49;12.40;74.20
27314;DHT22;14800;48.174;9.798;2022-11-18T13:04:44;12.50;73.40
27314;DHT22;14800;48.174;9.798;2022-11-18T13:07:11;12.50;74.40
27314;DHT22;14800;48.174;9.798;2022-11-18T13:09:57;12.50;74.00
27314;DHT22;14800;48.174;9.798;2022-11-18T13:12:28;12.60;73.00
27314;DHT22;14800;48.174;9.798;2022-11-18T13:14:54;12.50;72.00
27314;DHT22;14800;48.174;9.798;2022-11-18T13:17:40;12.50;72.50
27314;DHT22;14800;48.174;9.798;2022-11-18T13:20:30;12.50;72.70
27314;DHT22;14800;48.174;9.798;2022-11-18T13:25:48;12.40;72.10
27314;DHT22;14800;48.174;9.798;2022-11-18T13:33:25;12.10;72.50
27314;DHT22;14800;48.174;9.798;2022-11-18T13:35:51;12.00;73.00
27314;DHT22;14800;48.174;9.798;2022-11-18T13:38:22;11.90;73.70
27314;DHT22;14800;48.174;9.798;2022-11-18T13:40:49;11.80;74.10
27314;DHT22;14800;48.174;9.798;2022-11-18T13:43:33;11.70;74.70
27314;DHT22;14800;48.174;9.798;2022-11-18T13:46:00;11.60;75.10
27314;DHT22;14800;48.174;9.798;2022-11-18T13:48:27;11.50;75.00
27314;DHT22;14800;48.174;9.798;2022-11-18T13:50:55;11.40;75.10
27314;DHT22;14800;48.174;9.798;2022-11-18T13:53:28;11.30;75.00
27314;DHT22;14800;48.174;9.798;2022-11-18T13:58:43;11.20;75.60
27314;DHT22;14800;48.174;9.798;2022-11-18T14:01:18;11.20;76.00
27314;DHT22;14800;48.174;9.798;2022-11-18T14:04:06;11.20;76.10
27314;DHT22;14800;48.174;9.798;2022-11-18T14:06:40;11.30;76.00
27314;DHT22;14800;48.174;9.798;2022-11-18T14:09:26;11.30;76.60
27314;DHT22;14800;48.174;9.798;2022-11-18T14:12:19;11.40;75.70
27314;DHT22;14800;48.174;9.798;2022-11-18T14:14:46;11.50;74.80
27314;DHT22;14800;48.174;9.798;2022-11-18T14:17:24;11.60;75.10
27314;DHT22;14800;48.174;9.798;2022-11-18T14:19:55;11.70;74.20
27314;DHT22;14800;48.174;9.798;2022-11-18T14:22:29;11.80;73.50
27314;DHT22;14800;48.174;9.798;2022-11-18T14:27:39;11.80;73.50
27314;DHT22;14800;48.174;9.798;2022-11-18T14:31:25;11.90;73.00
27314;DHT22;14800;48.174;9.798;2022-11-18T14:41:04;11.90;73.30
27314;DHT22;14800;48.174;9.798;2022-11-18T14:43:30;11.90;73.00
27314;DHT22;14800;48.174;9.798;2022-11-18T14:46:01;11.90;72.80
27314;DHT22;14800;48.174;9.798;2022-11-18T14:48:28;11.80;72.20
27314;DHT22;14800;48.174;9.798;2022-11-18T14:50:54;11.70;73.10
27314;DHT22;14800;48.174;9.798;2022-11-18T14:53:20;11.70;72.40
27314;DHT22;14800;48.174;9.798;2022-11-18T14:55:50;11.60;73.20
27314;DHT22;14800;48.174;9.798;2022-11-18T14:58:17;11.50;73.90
27314;DHT22;14800;48.174;9.798;2022-11-18T15:00:44;11.40;74.20
27314;DHT22;14800;48.174;9.798;2022-11-18T15:03:11;11.30;73.90
27314;DHT22;14800;48.174;9.798;2022-11-18T15:05:36;11.20;74.50
27314;DHT22;14800;48.174;9.798;2022-11-18T15:08:02;11.10;74.60
27314;DHT22;14800;48.174;9.798;2022-11-18T15:10:28;11.00;74.90
27314;DHT22;14800;48.174;9.798;2022-11-18T15:12:54;11.00;75.30
27314;DHT22;14800;48.174;9.798;2022-11-18T15:15:20;10.90;75.70
27314;DHT22;14800;48.174;9.798;2022-11-18T15:17:46;10.90;76.00
27314;DHT22;14800;48.174;9.798;2022-11-18T15:20:13;10.80;76.10
27314;DHT22;14800;48.174;9.798;2022-11-18T15:22:40;10.80;76.30
27314;DHT22;14800;48.174;9.798;2022-11-18T15:25:06;10.80;76.60
27314;DHT22;14800;48.174;9.798;2022-11-18T15:27:31;10.80;76.80
27314;DHT22;14800;48.174;9.798;2022-11-18T15:29:57;10.80;76.70
27314;DHT22;14800;48.174;9.798;2022-11-18T15:32:23;10.80;77.00
27314;DHT22;14800;48.174;9.798;2022-11-18T15:34:48;10.80;76.90
27314;DHT22;14800;48.174;9.798;2022-11-18T15:37:14;10.80;77.00
27314;DHT22;14800;48.174;9.798;2022-11-18T15:39:40;10.80;76.80
27314;DHT22;14800;48.174;9.798;2022-11-18T15:42:05;10.80;76.80
27314;DHT22;14800;48.174;9.798;2022-11-18T15:44:31;10.80;76.60
27314;DHT22;14800;48.174;9.798;2022-11-18T15:46:56;10.80;77.40
27314;DHT22;14800;48.174;9.798;2022-11-18T15:49:24;10.80;76.30
27314;DHT22;14800;48.174;9.798;2022-11-18T15:51:50;10.80;76.50
27314;DHT22;14800;48.174;9.798;2022-11-18T15:54:15;10.80;76.50
27314;DHT22;14800;48.174;9.798;2022-11-18T15:56:41;10.80;76.30
27314;DHT22;14800;48.174;9.798;2022-11-18T15:59:09;10.80;76.30
27314;DHT22;14800;48.174;9.798;2022-11-18T16:01:40;10.70;76.30
27314;DHT22;14800;48.174;9.798;2022-11-18T16:04:08;10.70;76.10
27314;DHT22;14800;48.174;9.798;2022-11-18T16:06:34;10.80;76.10
27314;DHT22;14800;48.174;9.798;2022-11-18T16:09:00;10.70;76.10
27314;DHT22;14800;48.174;9.798;2022-11-18T16:11:27;10.70;76.30
27314;DHT22;14800;48.174;9.798;2022-11-18T16:14:13;10.60;76.10
27314;DHT22;14800;48.174;9.798;2022-11-18T16:16:40;10.60;75.80
27314;DHT22;14800;48.174;9.798;2022-11-18T16:19:09;10.60;75.70
27314;DHT22;14800;48.174;9.798;2022-11-18T16:21:37;10.60;75.80
27314;DHT22;14800;48.174;9.798;2022-11-18T16:24:05;10.50;76.00
27314;DHT22;14800;48.174;9.798;2022-11-18T16:26:32;10.50;76.00
27314;DHT22;14800;48.174;9.798;2022-11-18T16:28:58;10.50;76.20
27314;DHT22;14800;48.174;9.798;2022-11-18T16:31:25;10.40;76.40
27314;DHT22;14800;48.174;9.798;2022-11-18T16:34:14;10.40;76.30
27314;DHT22;14800;48.174;9.798;2022-11-18T16:36:42;10.40;76.30
27314;DHT22;14800;48.174;9.798;2022-11-18T16:39:13;10.40;76.20
27314;DHT22;14800;48.174;9.798;2022-11-18T16:41:40;10.30;76.30
27314;DHT22;14800;48.174;9.798;2022-11-18T16:44:08;10.30;76.50
27314;DHT22;14800;48.174;9.798;2022-11-18T16:46:36;10.30;76.60
27314;DHT22;14800;48.174;9.798;2022-11-18T16:49:02;10.30;76.50
27314;DHT22;14800;48.174;9.798;2022-11-18T16:51:31;10.30;76.60
27314;DHT22;14800;48.174;9.798;2022-11-18T16:53:59;10.20;76.60
27314;DHT22;14800;48.174;9.798;2022-11-18T16:56:27;10.20;76.60
27314;DHT22;14800;48.174;9.798;2022-11-18T16:59:04;10.20;76.90
27314;DHT22;14800;48.174;9.798;2022-11-18T17:01:31;10.20;76.90
27314;DHT22;14800;48.174;9.798;2022-11-18T17:03:58;10.20;77.00
27314;DHT22;14800;48.174;9.798;2022-11-18T17:06:28;10.20;77.00
27314;DHT22;14800;48.174;9.798;2022-11-18T17:08:54;10.20;77.00
27314;DHT22;14800;48.174;9.798;2022-11-18T17:11:20;10.20;76.80
27314;DHT22;14800;48.174;9.798;2022-11-18T17:13:45;10.20;76.80
27314;DHT22;14800;48.174;9.798;2022-11-18T17:16:13;10.20;76.80
27314;DHT22;14800;48.174;9.798;2022-11-18T17:18:39;10.10;76.70
27314;DHT22;14800;48.174;9.798;2022-11-18T17:21:15;10.10;76.60
27314;DHT22;14800;48.174;9.798;2022-11-18T17:23:45;10.00;76.50
27314;DHT22;14800;48.174;9.798;2022-11-18T17:26:13;10.00;76.50
27314;DHT22;14800;48.174;9.798;2022-11-18T17:28:39;10.00;76.70
27314;DHT22;14800;48.174;9.798;2022-11-18T17:31:10;9.90;76.70
27314;DHT22;14800;48.174;9.798;2022-11-18T17:33:36;9.90;76.80
27314;DHT22;14800;48.174;9.798;2022-11-18T17:36:10;9.80;76.80
27314;DHT22;14800;48.174;9.798;2022-11-18T17:38:38;9.80;76.80
27314;DHT22;14800;48.174;9.798;2022-11-18T17:41:05;9.80;77.70
27314;DHT22;14800;48.174;9.798;2022-11-18T17:43:31;9.70;76.90
27314;DHT22;14800;48.174;9.798;2022-11-18T17:45:58;9.70;77.00
27314;DHT22;14800;48.174;9.798;2022-11-18T17:48:28;9.70;77.00
27314;DHT22;14800;48.174;9.798;2022-11-18T17:51:04;9.60;77.20
27314;DHT22;14800;48.174;9.798;2022-11-18T17:53:30;9.50;77.20
27314;DHT22;14800;48.174;9.798;2022-11-18T17:55:56;9.50;77.50
27314;DHT22;14800;48.174;9.798;2022-11-18T17:58:21;9.40;77.50
27314;DHT22;14800;48.174;9.798;2022-11-18T18:00:47;9.30;77.70
27314;DHT22;14800;48.174;9.798;2022-11-18T18:03:12;9.30;77.90